Time;durP1;ratioP1;P1;durP2;ratioP2;P2;SDS_P1;SDS_P2;PMS_P1;PMS_P2;Temp;Humidity;BMP_temperature;BMP_pressure;BME280_temperature;BME280_humidity;BME280_pressure;Samples;Min_cycle;Max_cycle;Signal;HPM_P1;HPM_P2
2022/11/28 00:02:06;;;;;;;;;6.50;3.25;;;;;;;;5062881;28;61764;-78
2022/11/28 00:04:31;;;;;;;;;5.75;4.75;;;;;;;;5062835;28;62082;-77
2022/11/28 00:06:57;;;;;;;;;6.75;4.00;;;;;;;;5062012;28;62017;-78
2022/11/28 00:09:23;;;;;;;;;7.25;4.75;;;;;;;;5062384;28;61905;-78
2022/11/28 00:11:49;;;;;;;;;6.75;4.75;;;;;;;;5062433;28;61683;-78
2022/11/28 00:14:15;;;;;;;;;3.25;2.50;;;;;;;;5062640;28;61860;-78
2022/11/28 00:16:40;;;;;;;;;8.00;4.00;;;;;;;;5061903;28;62748;-78
2022/11/28 00:19:06;;;;;;;;;5.50;4.25;;;;;;;;5062244;28;62038;-78
2022/11/28 00:21:31;;;;;;;;;7.50;4.50;;;;;;;;5062086;28;61881;-78
2022/11/28 00:23:57;;;;;;;;;6.25;5.00;;;;;;;;5062628;28;61699;-78
2022/11/28 00:26:24;;;;;;;;;6.50;4.00;;;;;;;;5061888;28;62205;-78
2022/11/28 00:28:49;;;;;;;;;4.25;3.25;;;;;;;;5062267;28;61856;-78
2022/11/28 00:31:17;;;;;;;;;5.25;4.00;;;;;;;;5062407;28;61836;-78
2022/11/28 00:33:43;;;;;;;;;4.75;4.75;;;;;;;;5062435;28;61872;-78
2022/11/28 00:36:08;;;;;;;;;8.00;6.50;;;;;;;;5061630;28;62117;-78
2022/11/28 00:38:34;;;;;;;;;6.25;3.25;;;;;;;;5061970;28;61794;-78
2022/11/28 00:41:00;;;;;;;;;4.50;3.50;;;;;;;;5062211;28;61798;-78
2022/11/28 00:43:25;;;;;;;;;3.50;3.50;;;;;;;;5062503;28;61956;-78
2022/11/28 00:45:50;;;;;;;;;3.50;3.50;;;;;;;;5061430;28;62741;-78
2022/11/28 00:48:15;;;;;;;;;7.75;4.00;;;;;;;;5044159;28;61896;-78
2022/11/28 00:50:41;;;;;;;;;5.50;4.00;;;;;;;;5061730;28;61766;-78
2022/11/28 00:53:06;;;;;;;;;8.00;4.00;;;;;;;;5044200;28;62386;-78
2022/11/28 00:55:31;;;;;;;;;4.00;3.00;;;;;;;;5061588;28;62174;-78
2022/11/28 00:57:56;;;;;;;;;5.50;4.75;;;;;;;;5061925;28;61796;-78
2022/11/28 01:00:22;;;;;;;;;4.00;4.00;;;;;;;;5043904;28;61905;-78
2022/11/28 01:02:47;;;;;;;;;6.00;4.50;;;;;;;;5062027;28;62352;-78
2022/11/28 01:05:12;;;;;;;;;4.50;3.25;;;;;;;;5061178;28;61908;-78
2022/11/28 01:07:41;;;;;;;;;10.00;6.00;;;;;;;;5062076;28;61925;-78
2022/11/28 01:10:06;;;;;;;;;6.50;4.00;;;;;;;;5061974;28;61979;-78
2022/11/28 01:12:31;;;;;;;;;5.00;5.00;;;;;;;;5065304;28;61758;-78
2022/11/28 01:14:57;;;;;;;;;5.00;3.00;;;;;;;;5046380;28;63841;-78
2022/11/28 01:17:22;;;;;;;;;6.25;3.00;;;;;;;;5065246;28;61753;-78
2022/11/28 01:19:47;;;;;;;;;9.00;6.00;;;;;;;;5064947;28;61897;-78
2022/11/28 01:22:13;;;;;;;;;7.00;3.75;;;;;;;;5065275;28;61949;-78
2022/11/28 01:24:38;;;;;;;;;4.25;4.00;;;;;;;;5046342;28;63580;-78
2022/11/28 01:27:03;;;;;;;;;8.00;6.25;;;;;;;;5064971;28;61941;-78
2022/11/28 01:29:28;;;;;;;;;9.25;4.00;;;;;;;;5065187;28;61913;-78
2022/11/28 01:31:54;;;;;;;;;6.75;5.00;;;;;;;;5065177;28;62062;-78
2022/11/28 01:34:19;;;;;;;;;4.00;4.00;;;;;;;;5064404;28;62714;-78
2022/11/28 01:36:44;;;;;;;;;10.00;5.25;;;;;;;;5064930;28;61708;-79
2022/11/28 01:39:11;;;;;;;;;8.00;7.00;;;;;;;;5064706;28;61682;-78
2022/11/28 01:41:36;;;;;;;;;7.75;6.25;;;;;;;;5065345;28;62187;-78
2022/11/28 01:44:28;;;;;;;;;11.00;5.50;;;;;;;;5064044;28;61667;-78
2022/11/28 01:46:54;;;;;;;;;7.00;6.00;;;;;;;;5064625;28;61876;-78
2022/11/28 01:49:21;;;;;;;;;11.75;8.00;;;;;;;;5064341;28;61702;-78
2022/11/28 01:51:48;;;;;;;;;11.50;5.00;;;;;;;;5046801;28;61768;-78
2022/11/28 01:54:15;;;;;;;;;6.50;6.25;;;;;;;;5063684;28;61864;-78
2022/11/28 01:56:43;;;;;;;;;6.00;6.00;;;;;;;;5064749;28;61743;-78
2022/11/28 01:59:10;;;;;;;;;7.00;4.75;;;;;;;;5064539;28;61961;-78
2022/11/28 02:01:36;;;;;;;;;6.50;4.25;;;;;;;;5064708;28;62096;-78
2022/11/28 02:04:17;;;;;;;;;8.00;6.25;;;;;;;;5120317;27;61865;-76
2022/11/28 02:06:43;;;;;;;;;7.25;5.00;;;;;;;;5120690;27;61715;-75
2022/11/28 02:09:12;;;;;;;;;8.25;4.50;;;;;;;;5120094;27;62178;-75
2022/11/28 02:11:56;;;;;;;;;5.00;5.00;;;;;;;;5119608;27;62036;-75
2022/11/28 02:14:21;;;;;;;;;5.00;5.00;;;;;;;;5120556;27;62132;-76
2022/11/28 02:16:46;;;;;;;;;7.25;7.25;;;;;;;;5120009;27;61786;-75
2022/11/28 02:19:15;;;;;;;;;7.00;5.75;;;;;;;;5119889;27;61838;-76
2022/11/28 02:21:59;;;;;;;;;14.75;7.75;;;;;;;;5119275;27;62804;-76
2022/11/28 02:24:43;;;;;;;;;6.25;6.25;;;;;;;;5118159;27;61779;-75
2022/11/28 02:27:14;;;;;;;;;6.50;6.50;;;;;;;;5118803;27;61834;-76
2022/11/28 02:29:52;;;;;;;;;7.75;7.25;;;;;;;;5118929;27;61917;-75
2022/11/28 02:32:26;;;;;;;;;10.25;5.25;;;;;;;;5117346;27;62790;-76
2022/11/28 02:35:00;;;;;;;;;7.75;5.75;;;;;;;;5120280;27;62194;-75
2022/11/28 02:37:28;;;;;;;;;13.75;5.75;;;;;;;;5120062;27;62100;-76
2022/11/28 02:40:02;;;;;;;;;10.25;7.25;;;;;;;;5118634;27;62276;-76
2022/11/28 02:42:53;;;;;;;;;9.00;6.75;;;;;;;;5119186;27;61810;-75
2022/11/28 02:45:24;;;;;;;;;11.25;8.00;;;;;;;;5119492;27;61849;-75
2022/11/28 02:47:56;;;;;;;;;9.50;7.75;;;;;;;;5119842;27;61699;-76
2022/11/28 02:50:24;;;;;;;;;8.00;5.00;;;;;;;;5119675;27;62027;-76
2022/11/28 02:53:02;;;;;;;;;6.00;6.00;;;;;;;;5119212;27;62781;-76
2022/11/28 02:55:29;;;;;;;;;8.75;6.50;;;;;;;;5119056;27;61852;-76
2022/11/28 02:57:54;;;;;;;;;9.50;8.50;;;;;;;;5120110;27;61988;-75
2022/11/28 03:00:20;;;;;;;;;5.00;3.50;;;;;;;;5119143;27;61759;-75
2022/11/28 03:02:50;;;;;;;;;7.50;7.50;;;;;;;;5118809;27;62892;-76
2022/11/28 03:05:34;;;;;;;;;9.00;8.25;;;;;;;;5119463;27;61870;-76
2022/11/28 03:08:04;;;;;;;;;8.75;8.00;;;;;;;;5119486;27;61727;-76
2022/11/28 03:10:39;;;;;;;;;9.50;9.50;;;;;;;;5118191;27;62070;-76
2022/11/28 03:13:24;;;;;;;;;8.25;7.75;;;;;;;;5119053;27;62074;-76
2022/11/28 03:15:58;;;;;;;;;11.75;10.75;;;;;;;;5081699;28;62279;-76
2022/11/28 03:18:27;;;;;;;;;9.50;7.75;;;;;;;;5082592;28;61920;-76
2022/11/28 03:20:55;;;;;;;;;8.00;7.00;;;;;;;;5082867;28;61963;-76
2022/11/28 03:23:29;;;;;;;;;5.00;5.00;;;;;;;;5081856;28;62970;-76
2022/11/28 03:25:57;;;;;;;;;9.00;8.00;;;;;;;;5082355;28;62326;-76
2022/11/28 03:28:31;;;;;;;;;8.50;6.00;;;;;;;;5082374;28;62071;-75
2022/11/28 03:31:01;;;;;;;;;8.00;6.25;;;;;;;;5082339;28;61801;-75
2022/11/28 03:33:29;;;;;;;;;4.75;4.75;;;;;;;;5098807;27;63549;-76
2022/11/28 03:35:57;;;;;;;;;9.75;6.50;;;;;;;;5065351;28;62097;-76
2022/11/28 03:38:43;;;;;;;;;7.75;6.00;;;;;;;;5082450;28;61822;-75
2022/11/28 03:41:17;;;;;;;;;4.75;4.75;;;;;;;;5081464;28;61964;-76
2022/11/28 03:43:45;;;;;;;;;14.50;8.50;;;;;;;;5064205;28;64538;-76
2022/11/28 03:46:12;;;;;;;;;9.00;6.00;;;;;;;;5082272;28;62033;-75
2022/11/28 03:48:43;;;;;;;;;8.25;7.25;;;;;;;;5081662;28;62000;-76
2022/11/28 03:51:13;;;;;;;;;6.25;6.00;;;;;;;;5082448;28;61893;-75
2022/11/28 03:53:57;;;;;;;;;6.50;6.50;;;;;;;;5083587;28;61987;-76
2022/11/28 03:56:23;;;;;;;;;10.00;8.25;;;;;;;;5084642;27;61812;-76
2022/11/28 03:58:58;;;;;;;;;8.50;5.75;;;;;;;;5084460;28;61751;-76
2022/11/28 04:01:40;;;;;;;;;6.75;6.75;;;;;;;;5083246;28;61846;-75
2022/11/28 04:04:05;;;;;;;;;9.00;9.00;;;;;;;;5083544;27;61770;-76
2022/11/28 04:07:03;;;;;;;;;9.00;8.00;;;;;;;;5084394;28;61705;-75
2022/11/28 04:09:37;;;;;;;;;9.50;8.75;;;;;;;;5024202;28;62239;-75
2022/11/28 04:12:08;;;;;;;;;11.75;9.25;;;;;;;;5041703;28;62088;-76
2022/11/28 04:14:36;;;;;;;;;8.75;5.75;;;;;;;;5040395;28;62037;-76
2022/11/28 04:17:09;;;;;;;;;8.75;8.75;;;;;;;;5041542;28;61880;-76
2022/11/28 04:19:34;;;;;;;;;10.25;9.00;;;;;;;;5041122;28;61981;-75
2022/11/28 04:22:06;;;;;;;;;11.25;9.00;;;;;;;;5041448;28;62024;-75
2022/11/28 04:24:35;;;;;;;;;12.75;8.50;;;;;;;;5023579;28;62134;-76
2022/11/28 04:27:04;;;;;;;;;8.00;6.50;;;;;;;;5022969;28;61867;-76
2022/11/28 04:29:32;;;;;;;;;9.75;8.75;;;;;;;;5041395;28;61802;-75
2022/11/28 04:31:59;;;;;;;;;8.00;7.00;;;;;;;;5041327;28;62068;-75
2022/11/28 04:34:25;;;;;;;;;8.25;6.00;;;;;;;;5039932;28;63029;-76
2022/11/28 04:36:52;;;;;;;;;10.75;9.75;;;;;;;;5041080;28;62131;-75
2022/11/28 04:39:20;;;;;;;;;8.00;8.00;;;;;;;;5024188;28;61900;-76
2022/11/28 04:41:53;;;;;;;;;10.75;8.25;;;;;;;;5040557;28;61829;-76
2022/11/28 04:44:23;;;;;;;;;8.75;8.00;;;;;;;;5051354;27;62091;-75
2022/11/28 04:46:50;;;;;;;;;9.75;9.00;;;;;;;;5103002;27;61948;-76
2022/11/28 04:49:16;;;;;;;;;10.25;7.75;;;;;;;;5101890;27;61884;-75
2022/11/28 04:52:00;;;;;;;;;8.25;8.00;;;;;;;;5104375;27;62114;-75
2022/11/28 04:54:28;;;;;;;;;6.25;5.75;;;;;;;;5103500;27;62087;-75
2022/11/28 04:56:59;;;;;;;;;7.00;7.00;;;;;;;;5102285;27;62057;-76
2022/11/28 04:59:26;;;;;;;;;9.25;6.75;;;;;;;;5104212;27;61906;-76
2022/11/28 05:01:52;;;;;;;;;6.25;5.25;;;;;;;;5103725;27;62152;-76
2022/11/28 05:04:18;;;;;;;;;10.75;7.50;;;;;;;;5101842;27;61925;-76
2022/11/28 05:06:43;;;;;;;;;13.00;7.50;;;;;;;;5103869;27;61762;-76
2022/11/28 05:09:10;;;;;;;;;10.75;7.00;;;;;;;;5103530;27;62085;-76
2022/11/28 05:11:35;;;;;;;;;9.00;7.00;;;;;;;;5102266;27;62053;-76
2022/11/28 05:14:01;;;;;;;;;8.75;7.00;;;;;;;;5103026;27;61964;-75
2022/11/28 05:16:26;;;;;;;;;12.25;8.75;;;;;;;;5103823;27;61933;-75
2022/11/28 05:18:51;;;;;;;;;7.00;5.25;;;;;;;;5103225;27;61694;-75
2022/11/28 05:21:17;;;;;;;;;8.25;7.75;;;;;;;;5103693;27;61680;-76
2022/11/28 05:23:43;;;;;;;;;9.75;7.00;;;;;;;;5103131;27;61707;-76
2022/11/28 05:26:10;;;;;;;;;9.75;9.00;;;;;;;;5102857;27;62156;-76
2022/11/28 05:28:35;;;;;;;;;10.50;7.50;;;;;;;;5103722;27;62028;-76
2022/11/28 05:31:01;;;;;;;;;8.00;8.00;;;;;;;;5102468;27;61785;-76
2022/11/28 05:33:30;;;;;;;;;7.75;6.00;;;;;;;;5101263;27;64406;-75
2022/11/28 05:35:56;;;;;;;;;9.25;6.75;;;;;;;;5103374;27;61857;-76
2022/11/28 05:38:21;;;;;;;;;8.75;7.00;;;;;;;;5103493;27;61793;-75
2022/11/28 05:40:47;;;;;;;;;12.25;9.00;;;;;;;;5101780;27;62127;-75
2022/11/28 05:43:12;;;;;;;;;13.00;8.00;;;;;;;;5101034;27;62961;-76
2022/11/28 05:45:41;;;;;;;;;9.00;8.00;;;;;;;;5103431;27;61841;-75
2022/11/28 05:48:06;;;;;;;;;7.25;7.00;;;;;;;;5102119;27;61729;-76
2022/11/28 05:50:31;;;;;;;;;9.50;7.75;;;;;;;;5103204;27;61878;-76
2022/11/28 05:52:56;;;;;;;;;9.25;8.25;;;;;;;;5102810;27;62204;-76
2022/11/28 05:55:22;;;;;;;;;9.50;7.50;;;;;;;;5101329;27;62078;-76
2022/11/28 05:57:47;;;;;;;;;9.25;8.00;;;;;;;;5103260;27;61728;-75
2022/11/28 06:00:13;;;;;;;;;10.75;9.50;;;;;;;;5103144;27;61746;-76
2022/11/28 06:02:38;;;;;;;;;12.25;8.25;;;;;;;;5102398;27;61988;-75
2022/11/28 06:05:04;;;;;;;;;6.50;2.50;;;;;;;;5102980;27;62205;-77
2022/11/28 06:07:29;;;;;;;;;7.00;7.00;;;;;;;;5101657;27;61894;-79
2022/11/28 06:09:54;;;;;;;;;9.25;7.00;;;;;;;;5101120;27;61742;-77
2022/11/28 06:12:20;;;;;;;;;7.75;5.00;;;;;;;;5100849;27;61742;-77
2022/11/28 06:14:45;;;;;;;;;11.25;8.00;;;;;;;;5101651;27;61702;-76
2022/11/28 06:17:10;;;;;;;;;10.00;7.25;;;;;;;;5103695;27;61699;-76
2022/11/28 06:19:36;;;;;;;;;12.75;8.50;;;;;;;;5102449;27;62120;-77
2022/11/28 06:22:01;;;;;;;;;10.25;8.00;;;;;;;;5101924;27;61730;-76
2022/11/28 06:24:26;;;;;;;;;7.00;7.00;;;;;;;;5100398;27;62266;-76
2022/11/28 06:26:52;;;;;;;;;13.00;5.75;;;;;;;;5102364;27;61741;-77
2022/11/28 06:29:17;;;;;;;;;7.50;7.50;;;;;;;;5103059;27;61758;-76
2022/11/28 06:31:42;;;;;;;;;8.25;5.75;;;;;;;;5102314;27;61840;-76
2022/11/28 06:34:09;;;;;;;;;11.50;5.50;;;;;;;;5099932;27;61983;-77
2022/11/28 06:36:34;;;;;;;;;7.75;7.50;;;;;;;;5101966;27;61853;-78
2022/11/28 06:39:00;;;;;;;;;11.75;9.00;;;;;;;;5100671;27;61884;-76
2022/11/28 06:41:25;;;;;;;;;9.25;8.50;;;;;;;;5100202;27;63605;-74
2022/11/28 06:43:50;;;;;;;;;10.75;8.00;;;;;;;;5101914;27;62078;-75
2022/11/28 06:46:17;;;;;;;;;10.00;8.50;;;;;;;;5102068;27;61935;-75
2022/11/28 06:48:43;;;;;;;;;14.75;10.75;;;;;;;;5101333;27;61803;-75
2022/11/28 06:51:09;;;;;;;;;15.75;10.50;;;;;;;;5104577;27;62098;-75
2022/11/28 06:53:35;;;;;;;;;12.00;8.50;;;;;;;;5104863;27;61798;-75
2022/11/28 06:56:04;;;;;;;;;13.00;10.75;;;;;;;;5105406;27;61994;-75
2022/11/28 06:58:29;;;;;;;;;5.75;5.25;;;;;;;;5105705;27;61965;-75
2022/11/28 07:00:55;;;;;;;;;9.00;8.50;;;;;;;;5104076;27;63198;-75
2022/11/28 07:03:20;;;;;;;;;8.50;8.50;;;;;;;;5104792;27;61991;-75
2022/11/28 07:05:45;;;;;;;;;8.50;6.50;;;;;;;;5085067;27;62025;-75
2022/11/28 07:08:11;;;;;;;;;8.25;6.25;;;;;;;;5083572;28;61791;-75
2022/11/28 07:10:36;;;;;;;;;7.00;7.00;;;;;;;;5083916;28;61956;-76
2022/11/28 07:13:01;;;;;;;;;7.75;7.75;;;;;;;;5083604;28;61981;-76
2022/11/28 07:15:27;;;;;;;;;8.75;7.50;;;;;;;;5085127;28;61834;-76
2022/11/28 07:17:52;;;;;;;;;10.50;8.00;;;;;;;;5085304;28;61750;-76
2022/11/28 07:20:17;;;;;;;;;10.00;9.75;;;;;;;;5084478;27;61811;-76
2022/11/28 07:22:43;;;;;;;;;10.50;8.00;;;;;;;;5103056;27;61810;-76
2022/11/28 07:25:09;;;;;;;;;9.25;7.00;;;;;;;;5105203;27;61946;-77
2022/11/28 07:27:35;;;;;;;;;11.25;8.50;;;;;;;;5105518;27;61695;-76
2022/11/28 07:30:00;;;;;;;;;7.75;6.00;;;;;;;;5103183;27;62841;-76
2022/11/28 07:32:25;;;;;;;;;8.25;7.00;;;;;;;;5104822;27;61894;-76
2022/11/28 07:34:51;;;;;;;;;8.25;4.50;;;;;;;;5105301;27;61842;-79
2022/11/28 07:37:16;;;;;;;;;11.50;7.00;;;;;;;;5104569;27;61703;-76
2022/11/28 07:39:43;;;;;;;;;11.50;7.25;;;;;;;;5104009;27;61928;-75
2022/11/28 07:42:08;;;;;;;;;9.00;8.00;;;;;;;;5105291;27;61761;-76
2022/11/28 07:44:34;;;;;;;;;8.25;6.50;;;;;;;;5104848;27;62099;-78
2022/11/28 07:46:59;;;;;;;;;10.25;5.00;;;;;;;;5105479;27;61659;-73
2022/11/28 07:49:24;;;;;;;;;6.50;6.00;;;;;;;;5104073;27;62799;-73
2022/11/28 07:51:51;;;;;;;;;6.75;4.00;;;;;;;;5103994;27;62254;-74
2022/11/28 07:54:16;;;;;;;;;5.75;5.75;;;;;;;;5104373;27;61917;-74
2022/11/28 07:56:41;;;;;;;;;9.50;8.00;;;;;;;;5104312;27;61875;-74
2022/11/28 07:59:06;;;;;;;;;11.00;5.50;;;;;;;;5102914;27;61964;-73
2022/11/28 08:01:34;;;;;;;;;8.00;7.00;;;;;;;;5104164;27;61995;-73
2022/11/28 08:04:00;;;;;;;;;6.25;2.25;;;;;;;;5104411;27;62283;-73
2022/11/28 08:06:27;;;;;;;;;5.25;5.25;;;;;;;;5104235;27;61743;-73
2022/11/28 08:08:53;;;;;;;;;7.75;3.75;;;;;;;;5102713;27;64946;-74
2022/11/28 08:11:19;;;;;;;;;6.00;3.25;;;;;;;;5102885;27;62012;-73
2022/11/28 08:13:45;;;;;;;;;6.00;4.00;;;;;;;;5104277;27;62173;-73
2022/11/28 08:16:11;;;;;;;;;9.75;5.00;;;;;;;;5105040;27;62062;-73
2022/11/28 08:18:37;;;;;;;;;8.50;7.00;;;;;;;;5103115;27;61790;-74
2022/11/28 08:21:03;;;;;;;;;10.50;9.00;;;;;;;;5104276;27;61754;-73
2022/11/28 08:23:28;;;;;;;;;6.50;6.25;;;;;;;;5104468;27;61868;-73
2022/11/28 08:25:54;;;;;;;;;12.75;9.50;;;;;;;;5102936;27;62006;-73
2022/11/28 08:28:19;;;;;;;;;8.25;6.50;;;;;;;;5104066;27;61933;-74
2022/11/28 08:30:44;;;;;;;;;10.50;7.75;;;;;;;;5104371;27;61884;-73
2022/11/28 08:33:10;;;;;;;;;6.50;6.00;;;;;;;;5104125;27;61727;-73
2022/11/28 08:35:37;;;;;;;;;7.75;6.25;;;;;;;;5103109;27;62154;-73
2022/11/28 08:38:03;;;;;;;;;9.25;8.00;;;;;;;;5103723;27;61955;-74
2022/11/28 08:40:28;;;;;;;;;9.25;7.25;;;;;;;;5103835;27;61813;-73
2022/11/28 08:42:54;;;;;;;;;9.25;6.50;;;;;;;;5102651;27;62183;-73
2022/11/28 08:45:19;;;;;;;;;4.75;4.00;;;;;;;;5104579;27;62152;-73
2022/11/28 08:47:45;;;;;;;;;12.50;6.25;;;;;;;;5103830;27;62655;-74
2022/11/28 08:50:10;;;;;;;;;10.50;8.75;;;;;;;;5103120;27;61758;-73
2022/11/28 08:52:35;;;;;;;;;11.00;6.25;;;;;;;;5104039;27;61771;-73
2022/11/28 08:55:01;;;;;;;;;7.25;4.25;;;;;;;;5103820;27;61805;-73
2022/11/28 08:57:26;;;;;;;;;10.50;8.50;;;;;;;;5102295;27;63649;-73
2022/11/28 08:59:51;;;;;;;;;11.75;7.50;;;;;;;;5104068;27;61740;-73
2022/11/28 09:02:17;;;;;;;;;10.50;8.75;;;;;;;;5103695;27;61746;-73
2022/11/28 09:04:42;;;;;;;;;8.00;8.00;;;;;;;;5103707;27;61814;-73
2022/11/28 09:07:07;;;;;;;;;9.00;8.00;;;;;;;;5101869;27;61962;-73
2022/11/28 09:09:32;;;;;;;;;7.50;4.00;;;;;;;;5103702;27;61802;-74
2022/11/28 09:11:58;;;;;;;;;9.50;3.75;;;;;;;;5102974;27;61813;-74
2022/11/28 09:14:25;;;;;;;;;4.50;4.00;;;;;;;;5103563;27;62109;-73
2022/11/28 09:16:50;;;;;;;;;7.25;5.75;;;;;;;;5103188;27;62685;-73
2022/11/28 09:19:16;;;;;;;;;9.00;6.00;;;;;;;;5102924;27;62076;-73
2022/11/28 09:21:41;;;;;;;;;7.75;4.00;;;;;;;;5102560;27;62116;-74
2022/11/28 09:24:07;;;;;;;;;5.50;5.25;;;;;;;;5103451;27;61743;-74
2022/11/28 09:26:32;;;;;;;;;6.25;5.00;;;;;;;;5101140;27;63578;-74
2022/11/28 09:28:57;;;;;;;;;7.00;4.75;;;;;;;;5103725;27;61928;-74
2022/11/28 09:31:23;;;;;;;;;3.50;2.75;;;;;;;;5103117;27;61855;-74
2022/11/28 09:33:48;;;;;;;;;3.00;3.00;;;;;;;;5101894;27;61867;-73
2022/11/28 09:36:18;;;;;;;;;7.25;5.25;;;;;;;;5101434;27;61766;-74
2022/11/28 09:38:43;;;;;;;;;6.75;3.75;;;;;;;;5103693;27;61755;-73
2022/11/28 09:41:18;;;;;;;;;5.25;4.00;;;;;;;;5103044;27;61970;-73
2022/11/28 09:43:44;;;;;;;;;7.00;7.00;;;;;;;;5102317;27;62017;-74
2022/11/28 09:46:12;;;;;;;;;2.00;1.75;;;;;;;;5102193;27;61805;-73
2022/11/28 09:48:40;;;;;;;;;9.50;4.75;;;;;;;;5102838;27;62204;-73
2022/11/28 09:51:17;;;;;;;;;7.50;4.00;;;;;;;;5102314;27;61856;-73
2022/11/28 09:53:49;;;;;;;;;9.00;5.00;;;;;;;;5103385;27;61937;-73
2022/11/28 09:56:15;;;;;;;;;9.50;5.00;;;;;;;;5101189;27;63848;-74
2022/11/28 09:58:54;;;;;;;;;8.00;6.25;;;;;;;;5103322;27;62532;-73
2022/11/28 10:01:20;;;;;;;;;8.00;3.75;;;;;;;;5101269;27;62191;-73
2022/11/28 10:03:53;;;;;;;;;6.50;5.00;;;;;;;;5100909;27;61894;-74
2022/11/28 10:06:28;;;;;;;;;8.25;3.75;;;;;;;;5094908;27;63728;-74
2022/11/28 10:09:11;;;;;;;;;7.50;4.00;;;;;;;;5103238;27;61980;-73
2022/11/28 10:11:44;;;;;;;;;6.25;4.50;;;;;;;;5102827;27;61925;-73
2022/11/28 10:14:28;;;;;;;;;6.50;4.00;;;;;;;;5101600;27;61931;-73
2022/11/28 10:17:08;;;;;;;;;9.00;4.50;;;;;;;;5100465;27;64798;-73
2022/11/28 10:19:46;;;;;;;;;4.50;4.50;;;;;;;;5100829;27;61977;-74
2022/11/28 10:22:21;;;;;;;;;9.00;5.00;;;;;;;;5101459;27;62190;-74
2022/11/28 10:24:56;;;;;;;;;5.25;4.75;;;;;;;;5104190;27;61645;-73
2022/11/28 10:27:24;;;;;;;;;5.75;4.75;;;;;;;;5105585;27;62697;-74
2022/11/28 10:29:49;;;;;;;;;9.00;4.50;;;;;;;;5105867;27;61986;-73
2022/11/28 10:32:20;;;;;;;;;6.00;3.75;;;;;;;;5106502;27;61779;-73
2022/11/28 10:35:08;;;;;;;;;5.00;2.00;;;;;;;;5105110;27;62580;-73
2022/11/28 10:37:35;;;;;;;;;4.25;2.50;;;;;;;;5094543;27;62664;-73
2022/11/28 10:40:16;;;;;;;;;7.00;3.75;;;;;;;;5106093;27;61908;-73
2022/11/28 10:42:46;;;;;;;;;2.50;2.50;;;;;;;;5105658;27;61924;-74
2022/11/28 10:45:14;;;;;;;;;2.00;2.00;;;;;;;;5106170;27;61939;-73
2022/11/28 10:47:49;;;;;;;;;2.25;2.25;;;;;;;;5105624;27;62835;-74
2022/11/28 10:50:19;;;;;;;;;3.00;1.50;;;;;;;;5105468;27;61826;-73
2022/11/28 10:52:53;;;;;;;;;2.00;2.00;;;;;;;;5105958;27;61868;-74
2022/11/28 10:55:32;;;;;;;;;7.00;2.00;;;;;;;;5106041;27;61791;-74
2022/11/28 10:58:09;;;;;;;;;4.00;1.00;;;;;;;;5105602;27;61877;-74
2022/11/28 11:00:35;;;;;;;;;2.00;1.50;;;;;;;;5105101;27;62032;-74
2022/11/28 11:03:01;;;;;;;;;5.50;2.00;;;;;;;;5105489;27;62203;-74
2022/11/28 11:05:28;;;;;;;;;3.75;1.25;;;;;;;;5089490;27;62082;-73
2022/11/28 11:07:53;;;;;;;;;2.75;2.75;;;;;;;;5084481;28;61947;-73
2022/11/28 11:10:22;;;;;;;;;2.00;2.00;;;;;;;;5083579;28;61786;-73
2022/11/28 11:12:50;;;;;;;;;2.00;2.00;;;;;;;;5085120;28;61765;-74
2022/11/28 11:15:15;;;;;;;;;2.50;2.00;;;;;;;;5085195;28;61799;-73
2022/11/28 11:17:40;;;;;;;;;3.75;2.50;;;;;;;;5084857;28;61707;-73
2022/11/28 11:20:27;;;;;;;;;6.25;3.75;;;;;;;;5083468;28;61748;-73
2022/11/28 11:22:56;;;;;;;;;5.25;3.50;;;;;;;;5085131;28;62094;-73
2022/11/28 11:25:23;;;;;;;;;4.50;2.00;;;;;;;;5084623;28;62071;-73
2022/11/28 11:27:50;;;;;;;;;4.50;3.00;;;;;;;;5083803;28;62828;-73
2022/11/28 11:30:24;;;;;;;;;4.75;2.00;;;;;;;;5085184;28;61834;-74
2022/11/28 11:32:50;;;;;;;;;2.25;2.25;;;;;;;;5083519;28;61831;-74
2022/11/28 11:35:19;;;;;;;;;2.00;2.00;;;;;;;;5083419;28;61820;-74
2022/11/28 11:37:44;;;;;;;;;1.75;1.75;;;;;;;;5083062;28;63329;-73
2022/11/28 11:40:19;;;;;;;;;2.75;1.50;;;;;;;;5084397;28;62253;-74
2022/11/28 11:42:55;;;;;;;;;3.25;2.25;;;;;;;;5084253;28;61847;-73
2022/11/28 11:45:30;;;;;;;;;2.75;1.75;;;;;;;;5085074;28;61989;-73
2022/11/28 11:47:56;;;;;;;;;4.00;2.75;;;;;;;;5083994;28;61889;-74
2022/11/28 11:50:23;;;;;;;;;3.50;2.75;;;;;;;;5084320;28;61732;-73
2022/11/28 11:53:03;;;;;;;;;1.25;1.25;;;;;;;;5083368;28;62017;-74
2022/11/28 11:55:29;;;;;;;;;3.50;2.50;;;;;;;;5084546;28;61918;-74
2022/11/28 11:57:56;;;;;;;;;5.25;3.50;;;;;;;;5083256;28;61771;-73
2022/11/28 12:00:24;;;;;;;;;6.00;3.00;;;;;;;;5084578;28;61770;-74
2022/11/28 12:02:55;;;;;;;;;3.75;3.00;;;;;;;;5083768;28;62005;-74
2022/11/28 12:05:27;;;;;;;;;2.75;1.50;;;;;;;;5099736;27;61829;-73
2022/11/28 12:07:52;;;;;;;;;8.50;1.75;;;;;;;;5102802;27;63622;-74
2022/11/28 12:10:20;;;;;;;;;2.00;2.00;;;;;;;;5104664;27;61973;-74
2022/11/28 12:12:45;;;;;;;;;1.00;0.50;;;;;;;;5103992;27;61821;-74
2022/11/28 12:15:19;;;;;;;;;3.25;1.75;;;;;;;;5104448;27;61740;-74
2022/11/28 12:17:56;;;;;;;;;1.50;1.50;;;;;;;;5103861;27;62112;-74
2022/11/28 12:20:30;;;;;;;;;9.00;2.00;;;;;;;;5104044;27;61989;-74
2022/11/28 12:23:05;;;;;;;;;3.50;3.00;;;;;;;;5103999;27;61899;-74
2022/11/28 12:25:33;;;;;;;;;2.00;2.00;;;;;;;;5103858;27;62066;-73
2022/11/28 12:28:12;;;;;;;;;5.50;4.00;;;;;;;;5103713;27;62827;-73
2022/11/28 12:30:37;;;;;;;;;2.00;2.00;;;;;;;;5104125;27;61875;-73
2022/11/28 12:33:09;;;;;;;;;4.75;1.75;;;;;;;;5102590;27;61935;-74
2022/11/28 12:35:38;;;;;;;;;3.75;1.00;;;;;;;;5104230;27;61821;-74
2022/11/28 12:38:22;;;;;;;;;2.25;1.75;;;;;;;;5103114;27;61782;-74
2022/11/28 12:41:11;;;;;;;;;2.50;1.50;;;;;;;;5102143;27;62147;-74
2022/11/28 12:43:42;;;;;;;;;5.25;2.00;;;;;;;;5104517;27;61877;-74
2022/11/28 12:46:26;;;;;;;;;5.75;3.00;;;;;;;;5104289;27;61867;-74
2022/11/28 12:49:13;;;;;;;;;2.50;2.00;;;;;;;;5102778;27;61726;-74
2022/11/28 12:51:39;;;;;;;;;2.00;2.00;;;;;;;;5104280;27;61938;-74
2022/11/28 12:54:16;;;;;;;;;3.50;2.50;;;;;;;;5102330;27;61785;-74
2022/11/28 12:56:57;;;;;;;;;4.50;3.50;;;;;;;;5103734;27;62116;-74
2022/11/28 12:59:41;;;;;;;;;3.00;1.75;;;;;;;;5101923;27;64508;-73
2022/11/28 13:02:15;;;;;;;;;4.50;1.50;;;;;;;;5103482;27;61697;-74
2022/11/28 13:04:46;;;;;;;;;5.50;2.25;;;;;;;;5103801;27;61954;-74
2022/11/28 13:07:38;;;;;;;;;4.25;2.25;;;;;;;;5104121;27;61984;-74
2022/11/28 13:10:11;;;;;;;;;3.75;2.75;;;;;;;;5100484;27;61948;-74
2022/11/28 13:12:47;;;;;;;;;4.25;2.00;;;;;;;;5103320;27;61918;-74
2022/11/28 13:15:19;;;;;;;;;5.00;3.00;;;;;;;;5103787;27;61905;-74
2022/11/28 13:18:03;;;;;;;;;3.75;3.00;;;;;;;;5104015;27;62140;-75
2022/11/28 13:20:40;;;;;;;;;2.75;1.25;;;;;;;;5102470;27;62063;-75
2022/11/28 13:23:19;;;;;;;;;4.50;3.75;;;;;;;;5101904;27;61815;-75
2022/11/28 13:25:53;;;;;;;;;3.50;2.25;;;;;;;;5103123;27;62807;-75
2022/11/28 13:28:28;;;;;;;;;1.00;1.00;;;;;;;;5103814;27;61810;-75
2022/11/28 13:31:05;;;;;;;;;1.75;1.75;;;;;;;;5103221;27;62070;-75
2022/11/28 13:33:37;;;;;;;;;4.00;0.25;;;;;;;;5102937;27;62149;-75
2022/11/28 13:36:02;;;;;;;;;3.75;1.50;;;;;;;;5102298;27;61688;-75
2022/11/28 13:38:28;;;;;;;;;1.25;1.25;;;;;;;;5101492;27;61817;-75
2022/11/28 13:41:07;;;;;;;;;2.50;1.25;;;;;;;;5102592;27;61810;-75
2022/11/28 13:43:40;;;;;;;;;2.00;2.00;;;;;;;;5103105;27;62112;-75
2022/11/28 13:46:08;;;;;;;;;1.00;1.00;;;;;;;;5103510;27;61722;-75
2022/11/28 13:48:33;;;;;;;;;2.75;1.25;;;;;;;;5101717;27;61766;-75
2022/11/28 13:50:59;;;;;;;;;5.25;2.00;;;;;;;;5102932;27;62728;-75
2022/11/28 13:53:24;;;;;;;;;4.00;3.00;;;;;;;;5102482;27;61751;-75
2022/11/28 13:55:51;;;;;;;;;3.75;1.75;;;;;;;;5103010;27;61814;-75
2022/11/28 13:58:19;;;;;;;;;3.25;2.00;;;;;;;;5103495;27;62091;-75
2022/11/28 14:00:58;;;;;;;;;1.25;1.25;;;;;;;;5102249;27;62114;-75
2022/11/28 14:03:24;;;;;;;;;5.50;3.25;;;;;;;;5100857;27;61945;-74
2022/11/28 14:05:55;;;;;;;;;2.00;2.00;;;;;;;;5103201;27;61735;-75
2022/11/28 14:08:26;;;;;;;;;5.00;2.00;;;;;;;;5102751;27;62052;-75
2022/11/28 14:11:00;;;;;;;;;2.00;2.00;;;;;;;;5100833;27;63153;-75
2022/11/28 14:13:52;;;;;;;;;3.75;2.00;;;;;;;;5102614;27;62066;-75
2022/11/28 14:16:29;;;;;;;;;2.50;1.50;;;;;;;;5103241;27;61785;-75
2022/11/28 14:19:02;;;;;;;;;2.75;1.75;;;;;;;;5102677;27;62048;-75
2022/11/28 14:21:42;;;;;;;;;4.75;1.75;;;;;;;;5102041;27;62878;-75
2022/11/28 14:24:37;;;;;;;;;1.50;1.00;;;;;;;;5102777;27;62075;-75
2022/11/28 14:27:04;;;;;;;;;2.75;2.75;;;;;;;;5102967;27;62105;-75
2022/11/28 14:29:35;;;;;;;;;2.75;1.00;;;;;;;;5103186;27;61680;-75
2022/11/28 14:32:00;;;;;;;;;3.00;1.25;;;;;;;;5102129;27;61830;-75
2022/11/28 14:34:37;;;;;;;;;3.00;2.25;;;;;;;;5102417;27;61719;-75
2022/11/28 14:37:35;;;;;;;;;1.50;1.00;;;;;;;;5102546;27;61843;-75
2022/11/28 14:40:00;;;;;;;;;5.00;2.25;;;;;;;;5059229;28;62153;-75
2022/11/28 14:42:26;;;;;;;;;5.00;1.50;;;;;;;;5058753;28;62567;-74
2022/11/28 14:44:51;;;;;;;;;3.00;2.00;;;;;;;;5059065;28;61840;-74
2022/11/28 14:47:22;;;;;;;;;3.50;1.50;;;;;;;;5042639;28;62140;-74
2022/11/28 14:49:47;;;;;;;;;1.00;1.00;;;;;;;;5058804;28;61820;-74
2022/11/28 14:52:18;;;;;;;;;1.50;1.50;;;;;;;;5058434;28;62866;-74
2022/11/28 14:54:44;;;;;;;;;2.00;0.75;;;;;;;;5041980;28;62089;-74